createdAt,value
2017-08-16T00:00:40.058Z,982.04
2017-08-16T00:01:50.336Z,981.99
2017-08-16T00:03:00.606Z,981.94
2017-08-16T00:04:10.563Z,981.94
2017-08-16T00:05:20.521Z,981.88
2017-08-16T00:06:30.792Z,981.88
2017-08-16T00:07:41.063Z,981.87
2017-08-16T00:08:51.334Z,981.83
2017-08-16T00:10:01.297Z,981.85
2017-08-16T00:11:11.567Z,981.78
2017-08-16T00:12:21.207Z,981.76
2017-08-16T00:13:31.477Z,981.75
2017-08-16T00:14:41.747Z,981.73
2017-08-16T00:15:51.703Z,981.73
2017-08-16T00:17:01.661Z,981.74
2017-08-16T00:18:11.933Z,981.78
2017-08-16T00:19:22.205Z,981.78
2017-08-16T00:20:31.841Z,981.76
2017-08-16T00:21:41.811Z,981.73
2017-08-16T00:22:52.097Z,981.72
2017-08-16T00:24:02.056Z,981.69
2017-08-16T00:25:12.329Z,981.74
2017-08-16T00:26:22.602Z,981.73
2017-08-16T00:27:32.246Z,981.69
2017-08-16T00:28:42.521Z,981.68
2017-08-16T00:29:52.792Z,981.64
2017-08-16T00:31:03.063Z,981.62
2017-08-16T00:32:13.332Z,981.61
2017-08-16T00:33:23.614Z,981.56
2017-08-16T00:34:33.897Z,981.56
2017-08-16T00:35:44.165Z,981.58
2017-08-16T00:36:54.443Z,981.55
2017-08-16T00:38:04.409Z,981.54
2017-08-16T00:39:14.371Z,981.54
2017-08-16T00:40:24.644Z,981.46
2017-08-16T00:42:47.456Z,981.44
2017-08-16T00:43:57.727Z,981.47
2017-08-16T00:45:08.001Z,981.46
2017-08-16T00:46:17.961Z,981.47
2017-08-16T00:47:28.233Z,981.42
2017-08-16T00:48:37.874Z,981.43
2017-08-16T00:49:48.148Z,981.4
2017-08-16T00:50:58.420Z,981.39
2017-08-16T00:52:08.702Z,981.34
2017-08-16T00:53:18.978Z,981.33
2017-08-16T00:54:28.935Z,981.32
2017-08-16T00:55:39.207Z,981.31
2017-08-16T00:56:49.480Z,981.3
2017-08-16T00:57:59.438Z,981.31
2017-08-16T00:59:09.711Z,981.29
2017-08-16T01:00:19.995Z,981.25
2017-08-16T01:01:30.266Z,981.21
2017-08-16T01:02:40.533Z,981.18
2017-08-16T01:03:50.488Z,981.2
2017-08-16T01:05:00.772Z,981.18
2017-08-16T01:06:11.047Z,981.13
2017-08-16T01:07:21.318Z,981.14
2017-08-16T01:08:31.276Z,981.11
2017-08-16T01:09:41.546Z,981.11
2017-08-16T01:10:51.193Z,981.07
2017-08-16T01:12:01.467Z,981.03
2017-08-16T01:13:11.740Z,981.01
2017-08-16T01:14:22.012Z,980.97
2017-08-16T01:15:31.667Z,980.96
2017-08-16T01:16:41.938Z,980.89
2017-08-16T01:17:52.214Z,980.87
2017-08-16T01:19:02.170Z,980.85
2017-08-16T01:20:12.442Z,980.83
2017-08-16T01:21:22.715Z,980.86
2017-08-16T01:22:32.674Z,980.85
2017-08-16T01:23:42.629Z,980.84
2017-08-16T01:24:52.588Z,980.83
2017-08-16T01:26:02.863Z,980.83
2017-08-16T01:27:12.507Z,980.85
2017-08-16T01:28:22.780Z,980.82
2017-08-16T01:29:33.053Z,980.84
2017-08-16T01:30:42.696Z,980.83
2017-08-16T01:31:52.656Z,980.87
2017-08-16T01:33:02.625Z,980.84
2017-08-16T01:34:12.897Z,980.85
2017-08-16T01:35:22.856Z,980.86
2017-08-16T01:36:32.813Z,980.84
2017-08-16T01:37:42.463Z,980.84
2017-08-16T01:38:52.751Z,980.79
2017-08-16T01:40:03.051Z,980.82
2017-08-16T01:41:13.009Z,980.79
2017-08-16T01:42:22.981Z,980.78
2017-08-16T01:43:32.315Z,980.78
2017-08-16T01:44:42.271Z,980.79
2017-08-16T01:45:52.546Z,980.78
2017-08-16T01:47:02.505Z,980.83
2017-08-16T01:48:12.778Z,980.86
2017-08-16T01:49:23.049Z,980.83
2017-08-16T01:50:33.318Z,980.79
2017-08-16T01:51:42.646Z,980.75
2017-08-16T01:52:52.924Z,980.78
2017-08-16T01:54:03.218Z,980.75
2017-08-16T01:55:13.497Z,980.75
2017-08-16T01:56:23.771Z,980.73
2017-08-16T01:57:34.044Z,980.66
2017-08-16T01:58:44.327Z,980.66
2017-08-16T01:59:54.601Z,980.68
2017-08-16T02:01:04.566Z,980.66
2017-08-16T02:02:14.838Z,980.63
2017-08-16T02:03:25.109Z,980.63
2017-08-16T02:04:34.753Z,980.59
2017-08-16T02:05:44.711Z,980.56
2017-08-16T02:06:54.671Z,980.56
2017-08-16T02:08:04.633Z,980.56
2017-08-16T02:09:14.907Z,980.58
2017-08-16T02:10:25.179Z,980.61
2017-08-16T02:11:35.134Z,980.63
2017-08-16T02:12:44.780Z,980.6
2017-08-16T02:13:55.058Z,980.59
2017-08-16T02:15:04.725Z,980.56
2017-08-16T02:16:15.003Z,980.54
2017-08-16T02:17:24.959Z,980.52
2017-08-16T02:18:34.606Z,980.54
2017-08-16T02:19:44.886Z,980.52
2017-08-16T02:20:55.159Z,980.55
2017-08-16T02:22:05.139Z,980.5
2017-08-16T02:23:14.783Z,980.51
2017-08-16T02:24:25.054Z,980.49
2017-08-16T02:25:35.326Z,980.5
2017-08-16T02:26:45.615Z,980.46
2017-08-16T02:27:55.573Z,980.5
2017-08-16T02:29:05.530Z,980.53
2017-08-16T02:30:15.806Z,980.58
2017-08-16T02:31:26.081Z,980.54
2017-08-16T02:32:36.048Z,980.54
2017-08-16T02:33:46.328Z,980.58
2017-08-16T02:34:56.288Z,980.57
2017-08-16T02:36:06.566Z,980.54
2017-08-16T02:37:16.853Z,980.5
2017-08-16T02:38:26.810Z,980.49
2017-08-16T02:39:37.096Z,980.47
2017-08-16T02:40:47.369Z,980.48
2017-08-16T02:41:57.348Z,980.49
2017-08-16T02:43:07.311Z,980.5
2017-08-16T02:44:17.586Z,980.52
2017-08-16T02:45:27.862Z,980.54
2017-08-16T02:46:37.824Z,980.48
2017-08-16T02:47:47.786Z,980.47
2017-08-16T02:48:58.062Z,980.4
2017-08-16T02:50:08.334Z,980.36
2017-08-16T02:51:18.296Z,980.35
2017-08-16T02:52:28.253Z,980.37
2017-08-16T02:53:37.898Z,980.34
2017-08-16T02:54:48.172Z,980.4
2017-08-16T02:55:58.448Z,980.37
2017-08-16T02:57:08.723Z,980.4
2017-08-16T02:58:18.996Z,980.44
2017-08-16T02:59:29.269Z,980.41
2017-08-16T03:00:39.231Z,980.42
2017-08-16T03:01:48.880Z,980.37
2017-08-16T03:02:58.847Z,980.33
2017-08-16T03:04:08.805Z,980.34
2017-08-16T03:05:19.079Z,980.37
2017-08-16T03:06:28.727Z,980.38
2017-08-16T03:07:38.999Z,980.37
2017-08-16T03:08:49.269Z,980.41
2017-08-16T03:09:58.914Z,980.39
2017-08-16T03:11:09.189Z,980.42
2017-08-16T03:12:19.465Z,980.39
2017-08-16T03:13:29.742Z,980.41
2017-08-16T03:14:39.697Z,980.4
2017-08-16T03:15:49.655Z,980.43
2017-08-16T03:16:59.612Z,980.4
2017-08-16T03:18:09.573Z,980.41
2017-08-16T03:19:19.844Z,980.38
2017-08-16T03:20:30.114Z,980.41
2017-08-16T03:21:40.082Z,980.4
2017-08-16T03:22:50.053Z,980.48
2017-08-16T03:23:59.698Z,980.48
2017-08-16T03:25:09.974Z,980.51
2017-08-16T03:26:20.246Z,980.53
2017-08-16T03:27:30.518Z,980.56
2017-08-16T03:28:40.789Z,980.63
2017-08-16T03:29:50.749Z,980.61
2017-08-16T03:31:00.711Z,980.6
2017-08-16T03:32:10.362Z,980.68
2017-08-16T03:33:20.318Z,980.65
2017-08-16T03:34:30.591Z,980.63
2017-08-16T03:35:40.546Z,980.68
2017-08-16T03:36:50.822Z,980.64
2017-08-16T03:38:01.099Z,980.68
2017-08-16T03:39:11.368Z,980.67
2017-08-16T03:40:21.330Z,980.67
2017-08-16T03:41:31.293Z,980.65
2017-08-16T03:42:41.563Z,980.6
2017-08-16T03:43:51.836Z,980.62
2017-08-16T03:45:01.797Z,980.61
2017-08-16T03:46:12.070Z,980.61
2017-08-16T03:47:22.355Z,980.61
2017-08-16T03:48:32.676Z,980.62
2017-08-16T03:49:42.946Z,980.58
2017-08-16T03:50:53.217Z,980.56
2017-08-16T03:52:03.490Z,980.55
2017-08-16T03:53:13.763Z,980.52
2017-08-16T03:54:24.055Z,980.54
2017-08-16T03:55:34.331Z,980.49
2017-08-16T03:56:44.296Z,980.56
2017-08-16T03:57:54.569Z,980.49
2017-08-16T03:59:04.533Z,980.54
2017-08-16T04:00:14.801Z,980.55
2017-08-16T04:01:24.759Z,980.53
2017-08-16T04:02:35.029Z,980.53
2017-08-16T04:03:45.009Z,980.56
2017-08-16T04:04:55.281Z,980.55
2017-08-16T04:06:05.554Z,980.54
2017-08-16T04:07:15.826Z,980.57
2017-08-16T04:08:25.792Z,980.54
2017-08-16T04:09:36.063Z,980.53
2017-08-16T04:10:46.339Z,980.57
2017-08-16T04:11:56.298Z,980.56
2017-08-16T04:13:06.265Z,980.59
2017-08-16T04:14:16.222Z,980.56
2017-08-16T04:15:26.496Z,980.52
2017-08-16T04:16:36.778Z,980.56
2017-08-16T04:17:47.049Z,980.55
2017-08-16T04:18:56.688Z,980.56
2017-08-16T04:20:06.646Z,980.58
2017-08-16T04:21:16.942Z,980.6
2017-08-16T04:22:26.898Z,980.57
2017-08-16T04:23:37.174Z,980.59
2017-08-16T04:24:47.454Z,980.6
2017-08-16T04:25:57.414Z,980.64
2017-08-16T04:27:07.686Z,980.6
2017-08-16T04:28:17.643Z,980.61
2017-08-16T04:29:27.928Z,980.59
2017-08-16T04:30:37.884Z,980.62
2017-08-16T04:31:48.156Z,980.58
2017-08-16T04:32:58.435Z,980.63
2017-08-16T04:34:08.720Z,980.64
2017-08-16T04:35:18.675Z,980.65
2017-08-16T04:36:28.632Z,980.68
2017-08-16T04:37:38.593Z,980.64
2017-08-16T04:38:48.862Z,980.68
2017-08-16T04:39:59.135Z,980.68
2017-08-16T04:41:09.090Z,980.66
2017-08-16T04:42:18.736Z,980.7
2017-08-16T04:43:29.007Z,980.65
2017-08-16T04:44:39.334Z,980.61
2017-08-16T04:45:49.619Z,980.57
2017-08-16T04:46:59.576Z,980.57
2017-08-16T04:48:09.850Z,980.53
2017-08-16T04:49:19.807Z,980.49
2017-08-16T04:50:30.075Z,980.53
2017-08-16T04:51:40.038Z,980.61
2017-08-16T04:52:49.992Z,980.64
2017-08-16T04:53:59.950Z,980.61
2017-08-16T04:55:10.236Z,980.64
2017-08-16T04:56:20.510Z,980.64
2017-08-16T04:57:30.157Z,980.65
2017-08-16T04:58:39.487Z,980.66
2017-08-16T04:59:49.756Z,980.64
2017-08-16T05:00:59.719Z,980.64
2017-08-16T05:02:09.999Z,980.65
2017-08-16T05:03:19.958Z,980.67
2017-08-16T05:04:29.916Z,980.72
2017-08-16T05:05:39.885Z,980.76
2017-08-16T05:06:50.153Z,980.88
2017-08-16T05:08:00.109Z,980.88
2017-08-16T05:09:10.095Z,980.89
2017-08-16T05:10:20.365Z,980.88
2017-08-16T05:11:30.634Z,980.82
2017-08-16T05:12:40.904Z,980.83
2017-08-16T05:13:51.179Z,980.85
2017-08-16T05:15:01.136Z,980.83
2017-08-16T05:16:11.378Z,980.92
2017-08-16T05:17:21.334Z,980.96
2017-08-16T05:18:31.293Z,980.99
2017-08-16T05:19:41.567Z,981
2017-08-16T05:20:51.838Z,981.05
2017-08-16T05:22:01.817Z,981.08
2017-08-16T05:23:12.088Z,981.08
2017-08-16T05:24:22.362Z,981.08
2017-08-16T05:25:32.319Z,981.08
2017-08-16T05:26:42.277Z,981.07
2017-08-16T05:27:52.549Z,981.07
2017-08-16T05:29:02.517Z,981.12
2017-08-16T05:30:12.787Z,981.07
2017-08-16T05:31:23.054Z,981.07
2017-08-16T05:32:32.692Z,981.09
2017-08-16T05:33:42.335Z,981.1
2017-08-16T05:34:52.604Z,981.12
2017-08-16T05:36:02.566Z,981.14
2017-08-16T05:37:12.520Z,981.1
2017-08-16T05:38:22.173Z,981.09
2017-08-16T05:39:32.451Z,981.07
2017-08-16T05:40:42.410Z,981.07
2017-08-16T05:41:52.685Z,981.1
2017-08-16T05:43:02.328Z,981.09
2017-08-16T05:44:12.601Z,981.1
2017-08-16T05:45:22.244Z,981.12
2017-08-16T05:46:32.205Z,981.07
2017-08-16T05:47:42.166Z,981.08
2017-08-16T05:48:52.439Z,981.06
2017-08-16T05:50:02.399Z,981.05
2017-08-16T05:51:12.044Z,981.05
2017-08-16T05:52:22.035Z,981.06
2017-08-16T05:53:32.307Z,981.04
2017-08-16T05:54:42.270Z,981.06
2017-08-16T05:55:52.541Z,981.07
2017-08-16T05:57:02.524Z,981.1
2017-08-16T05:58:12.500Z,981.12
2017-08-16T05:59:22.772Z,981.07
2017-08-16T06:00:33.048Z,981.12
2017-08-16T06:01:43.337Z,981.08
2017-08-16T06:02:53.614Z,981.06
2017-08-16T06:04:03.887Z,981.1
2017-08-16T06:05:14.184Z,981.13
2017-08-16T06:06:24.455Z,981.13
2017-08-16T06:07:34.726Z,981.11
2017-08-16T06:08:44.684Z,981.15
2017-08-16T06:09:54.954Z,981.16
2017-08-16T06:11:05.230Z,981.17
2017-08-16T06:12:15.194Z,981.16
2017-08-16T06:13:25.471Z,981.12
2017-08-16T06:14:35.745Z,981.07
2017-08-16T06:15:45.709Z,981.11
2017-08-16T06:16:55.979Z,981.09
2017-08-16T06:18:06.256Z,981.11
2017-08-16T06:19:16.212Z,981.06
2017-08-16T06:20:25.856Z,981.07
2017-08-16T06:21:36.127Z,981.09
2017-08-16T06:22:46.082Z,981.11
2017-08-16T06:23:56.046Z,981.11
2017-08-16T06:25:06.320Z,981.14
2017-08-16T06:26:16.279Z,981.15
2017-08-16T06:27:25.923Z,981.15
2017-08-16T06:28:35.881Z,981.18
2017-08-16T06:29:46.164Z,981.15
2017-08-16T06:30:56.444Z,981.2
2017-08-16T06:32:06.122Z,981.17
2017-08-16T06:33:16.079Z,981.2
2017-08-16T06:34:26.370Z,981.26
2017-08-16T06:35:36.338Z,981.29
2017-08-16T06:36:46.610Z,981.32
2017-08-16T06:37:56.892Z,981.33
2017-08-16T06:39:06.856Z,981.33
2017-08-16T06:40:17.126Z,981.33
2017-08-16T06:41:27.087Z,981.28
2017-08-16T06:42:37.371Z,981.27
2017-08-16T06:43:47.658Z,981.31
2017-08-16T06:44:57.930Z,981.33
2017-08-16T06:46:08.211Z,981.39
2017-08-16T06:47:18.489Z,981.32
2017-08-16T06:48:28.770Z,981.34
2017-08-16T06:49:38.728Z,981.35
2017-08-16T06:50:48.688Z,981.38
2017-08-16T06:51:58.957Z,981.38
2017-08-16T06:53:08.606Z,981.4
2017-08-16T06:54:18.577Z,981.42
2017-08-16T06:55:28.853Z,981.41
2017-08-16T06:56:39.124Z,981.46
2017-08-16T06:57:49.397Z,981.45
2017-08-16T06:58:59.364Z,981.48
2017-08-16T07:00:09.324Z,981.53
2017-08-16T07:01:19.284Z,981.49
2017-08-16T07:02:29.246Z,981.49
2017-08-16T07:03:38.899Z,981.48
2017-08-16T07:04:49.200Z,981.47
2017-08-16T07:05:59.482Z,981.48
2017-08-16T07:07:09.758Z,981.49
2017-08-16T07:08:20.056Z,981.51
2017-08-16T07:09:29.701Z,981.48
2017-08-16T07:10:39.994Z,981.53
2017-08-16T07:11:50.269Z,981.6
2017-08-16T07:13:00.227Z,981.56
2017-08-16T07:14:10.505Z,981.59
2017-08-16T07:15:20.779Z,981.61
2017-08-16T07:16:30.737Z,981.59
2017-08-16T07:17:40.696Z,981.6
2017-08-16T07:18:50.971Z,981.6
2017-08-16T07:20:01.244Z,981.63
2017-08-16T07:21:10.894Z,981.61
2017-08-16T07:22:20.852Z,981.61
2017-08-16T07:23:31.133Z,981.65
2017-08-16T07:24:41.564Z,981.61
2017-08-16T07:25:51.839Z,981.64
2017-08-16T07:27:02.120Z,981.63
2017-08-16T07:28:12.397Z,981.67
2017-08-16T07:29:22.670Z,981.72
2017-08-16T07:30:35.096Z,981.73
2017-08-16T07:31:45.372Z,981.77
2017-08-16T07:32:55.646Z,981.76
2017-08-16T07:34:05.607Z,981.73
2017-08-16T07:35:15.881Z,981.73
2017-08-16T07:36:25.836Z,981.71
2017-08-16T07:37:36.163Z,981.73
2017-08-16T07:38:46.200Z,981.68
2017-08-16T07:39:56.476Z,981.69
2017-08-16T07:41:06.442Z,981.72
2017-08-16T07:42:16.408Z,981.75
2017-08-16T07:43:26.693Z,981.74
2017-08-16T07:44:36.339Z,981.73
2017-08-16T07:45:46.308Z,981.7
2017-08-16T07:46:56.580Z,981.7
2017-08-16T07:48:06.544Z,981.67
2017-08-16T07:49:16.503Z,981.7
2017-08-16T07:50:26.175Z,981.67
2017-08-16T07:51:36.135Z,981.69
2017-08-16T07:52:46.417Z,981.71
2017-08-16T07:53:56.416Z,981.68
2017-08-16T07:55:06.073Z,981.73
2017-08-16T07:56:16.355Z,981.76
2017-08-16T07:57:26.313Z,981.82
2017-08-16T07:58:36.275Z,981.85
2017-08-16T07:59:46.232Z,981.86
2017-08-16T08:00:56.187Z,981.89
2017-08-16T08:02:06.464Z,981.9
2017-08-16T08:03:16.424Z,981.93
2017-08-16T08:04:26.384Z,981.94
2017-08-16T08:05:36.393Z,981.97
2017-08-16T08:06:46.670Z,982.01
2017-08-16T08:07:56.719Z,982
2017-08-16T08:09:06.991Z,982.03
2017-08-16T08:10:16.631Z,981.95
2017-08-16T08:11:26.299Z,982.07
2017-08-16T08:12:36.259Z,982.03
2017-08-16T08:13:46.229Z,982.05
2017-08-16T08:14:56.505Z,982.06
2017-08-16T08:16:06.152Z,982.09
2017-08-16T08:17:16.119Z,982.1
2017-08-16T08:18:26.080Z,982.15
2017-08-16T08:19:36.044Z,982.2
2017-08-16T08:20:46.314Z,982.16
2017-08-16T08:21:56.276Z,982.16
2017-08-16T08:23:06.548Z,982.22
2017-08-16T08:24:16.823Z,982.2
2017-08-16T08:25:27.096Z,982.19
2017-08-16T08:26:37.067Z,982.25
2017-08-16T08:27:47.032Z,982.31
2017-08-16T08:28:57.305Z,982.27
2017-08-16T08:30:07.265Z,982.27
2017-08-16T08:31:17.221Z,982.31
2017-08-16T08:32:27.496Z,982.32
2017-08-16T08:33:37.774Z,982.37
2017-08-16T08:34:48.056Z,982.37
2017-08-16T08:35:58.330Z,982.38
2017-08-16T08:37:07.976Z,982.42
2017-08-16T08:38:17.936Z,982.4
2017-08-16T08:39:28.209Z,982.38
2017-08-16T08:40:38.481Z,982.38
2017-08-16T08:41:48.759Z,982.42
2017-08-16T08:42:58.731Z,982.43
2017-08-16T08:44:09.013Z,982.44
2017-08-16T08:45:18.972Z,982.4
2017-08-16T08:46:28.614Z,982.36
2017-08-16T08:47:38.574Z,982.39
2017-08-16T08:48:48.850Z,982.44
2017-08-16T08:49:59.121Z,982.47
2017-08-16T08:51:09.081Z,982.47
2017-08-16T08:52:19.050Z,982.46
2017-08-16T08:53:29.324Z,982.43
2017-08-16T08:54:38.655Z,982.4
2017-08-16T08:55:48.940Z,982.51
2017-08-16T08:56:59.220Z,982.49
2017-08-16T08:58:09.506Z,982.47
2017-08-16T08:59:19.464Z,982.43
2017-08-16T09:00:29.424Z,982.46
2017-08-16T09:01:39.068Z,982.43
2017-08-16T09:02:49.028Z,982.44
2017-08-16T09:03:58.986Z,982.46
2017-08-16T09:05:09.262Z,982.46
2017-08-16T09:06:19.223Z,982.47
2017-08-16T09:07:29.496Z,982.47
2017-08-16T09:08:39.151Z,982.51
2017-08-16T09:09:49.113Z,982.46
2017-08-16T09:10:59.386Z,982.46
2017-08-16T09:12:09.353Z,982.5
2017-08-16T09:13:18.997Z,982.49
2017-08-16T09:14:29.296Z,982.53
2017-08-16T09:15:38.635Z,982.53
2017-08-16T09:16:48.278Z,982.51
2017-08-16T09:17:58.241Z,982.59
2017-08-16T09:19:08.518Z,982.6
2017-08-16T09:20:18.483Z,982.63
2017-08-16T09:21:28.440Z,982.63
2017-08-16T09:22:38.714Z,982.61
2017-08-16T09:23:48.991Z,982.65
2017-08-16T09:24:59.264Z,982.64
2017-08-16T09:26:08.919Z,982.78
2017-08-16T09:27:19.204Z,982.73
2017-08-16T09:28:29.171Z,982.65
2017-08-16T09:29:39.442Z,982.67
2017-08-16T09:30:49.721Z,982.7
2017-08-16T09:31:59.996Z,982.63
2017-08-16T09:33:09.640Z,982.62
2017-08-16T09:34:19.297Z,982.67
2017-08-16T09:35:29.573Z,982.69
2017-08-16T09:36:39.846Z,982.69
2017-08-16T09:37:50.120Z,982.71
2017-08-16T09:39:00.395Z,982.7
2017-08-16T09:40:09.726Z,982.71
2017-08-16T09:41:19.693Z,982.78
2017-08-16T09:42:29.976Z,982.72
2017-08-16T09:43:40.283Z,982.72
2017-08-16T09:44:50.386Z,982.72
2017-08-16T09:46:00.697Z,982.71
2017-08-16T09:47:10.659Z,982.77
2017-08-16T09:48:20.626Z,982.71
2017-08-16T09:49:30.900Z,982.79
2017-08-16T09:50:40.859Z,982.78
2017-08-16T09:51:51.133Z,982.72
2017-08-16T09:53:01.415Z,982.75
2017-08-16T09:54:11.069Z,982.76
2017-08-16T09:55:20.722Z,982.8
2017-08-16T09:56:31.016Z,982.86
2017-08-16T09:57:41.294Z,982.77
2017-08-16T09:58:51.576Z,982.82
2017-08-16T10:00:01.426Z,982.78
2017-08-16T10:01:11.077Z,982.79
2017-08-16T10:02:21.355Z,982.8
2017-08-16T10:03:31.323Z,982.82
2017-08-16T10:04:41.284Z,982.8
2017-08-16T10:05:51.563Z,982.81
2017-08-16T10:07:01.210Z,982.85
2017-08-16T10:08:11.185Z,982.83
2017-08-16T10:09:20.836Z,982.91
2017-08-16T10:10:30.485Z,982.88
2017-08-16T10:11:40.447Z,982.94
2017-08-16T10:12:50.409Z,982.89
2017-08-16T10:14:00.684Z,982.93
2017-08-16T10:15:10.369Z,982.96
2017-08-16T10:16:20.651Z,982.96
2017-08-16T10:17:30.950Z,982.94
2017-08-16T10:18:40.598Z,982.97
2017-08-16T10:19:50.870Z,982.97
2017-08-16T10:21:00.832Z,982.93
2017-08-16T10:22:10.800Z,982.94
2017-08-16T10:23:20.762Z,982.94
2017-08-16T10:24:31.038Z,982.92
2017-08-16T10:25:41.008Z,982.95
2017-08-16T10:26:51.288Z,983.01
2017-08-16T10:28:01.561Z,983.01
2017-08-16T10:29:11.207Z,983.02
2017-08-16T10:30:21.169Z,983.01
2017-08-16T10:31:31.445Z,983.11
2017-08-16T10:32:41.408Z,983.1
2017-08-16T10:33:51.056Z,983.13
2017-08-16T10:35:01.335Z,983.08
2017-08-16T10:36:10.981Z,983.14
2017-08-16T10:37:20.948Z,983.17
2017-08-16T10:38:30.908Z,983.12
2017-08-16T10:39:40.877Z,983.18
2017-08-16T10:40:51.156Z,983.14
2017-08-16T10:42:01.121Z,983.12
2017-08-16T10:43:11.090Z,983.19
2017-08-16T10:44:21.052Z,983.17
2017-08-16T10:45:31.332Z,983.22
2017-08-16T10:46:40.978Z,983.3
2017-08-16T10:47:51.253Z,983.33
2017-08-16T10:49:01.530Z,983.31
2017-08-16T10:50:11.493Z,983.3
2017-08-16T10:51:21.777Z,983.26
2017-08-16T10:52:31.740Z,983.25
2017-08-16T10:53:42.023Z,983.31
2017-08-16T10:54:52.300Z,983.3
2017-08-16T10:56:02.259Z,983.28
2017-08-16T10:57:12.538Z,983.26
2017-08-16T10:58:22.817Z,983.34
2017-08-16T10:59:32.780Z,983.29
2017-08-16T11:00:43.062Z,983.27
2017-08-16T11:01:53.024Z,983.36
2017-08-16T11:03:03.304Z,983.32
2017-08-16T11:04:12.954Z,983.27
2017-08-16T11:05:23.236Z,983.39
2017-08-16T11:06:33.524Z,983.33
2017-08-16T11:07:43.489Z,983.3
2017-08-16T11:08:53.766Z,983.43
2017-08-16T11:10:04.048Z,983.36
2017-08-16T11:11:14.028Z,983.32
2017-08-16T11:12:23.994Z,983.32
2017-08-16T11:13:33.961Z,983.4
2017-08-16T11:14:44.246Z,983.39
2017-08-16T11:15:54.528Z,983.37
2017-08-16T11:17:04.809Z,983.4
2017-08-16T11:18:14.458Z,983.52
2017-08-16T11:19:24.423Z,983.47
2017-08-16T11:20:34.391Z,983.52
2017-08-16T11:21:44.691Z,983.52
2017-08-16T11:22:54.981Z,983.5
2017-08-16T11:24:05.267Z,983.53
2017-08-16T11:25:14.917Z,983.49
2017-08-16T11:26:25.196Z,983.46
2017-08-16T11:27:35.478Z,983.59
2017-08-16T11:28:45.760Z,983.54
2017-08-16T11:29:56.037Z,983.62
2017-08-16T11:31:06.001Z,983.68
2017-08-16T11:32:16.284Z,983.51
2017-08-16T11:33:26.254Z,983.61
2017-08-16T11:34:36.220Z,983.68
2017-08-16T11:35:45.558Z,983.52
2017-08-16T11:36:55.841Z,983.36
2017-08-16T11:38:05.494Z,983.7
2017-08-16T11:39:15.470Z,983.55
2017-08-16T11:40:24.812Z,983.7
2017-08-16T11:41:35.102Z,983.61
2017-08-16T11:42:45.071Z,983.55
2017-08-16T11:43:55.358Z,983.77
2017-08-16T11:45:05.640Z,983.47
2017-08-16T11:46:15.612Z,983.46
2017-08-16T11:47:25.902Z,983.51
2017-08-16T11:48:36.201Z,983.84
2017-08-16T11:49:46.490Z,983.74
2017-08-16T11:50:56.481Z,983.46
2017-08-16T11:52:06.485Z,983.53
2017-08-16T11:53:16.883Z,983.56
2017-08-16T11:54:27.174Z,983.55
2017-08-16T11:55:36.523Z,983.58
2017-08-16T11:56:45.878Z,983.58
2017-08-16T11:57:55.849Z,983.88
2017-08-16T11:59:06.133Z,983.84
2017-08-16T12:00:16.113Z,983.87
2017-08-16T12:01:26.405Z,983.76
2017-08-16T12:02:36.381Z,983.84
2017-08-16T12:03:46.356Z,983.79
2017-08-16T12:04:56.642Z,983.78
2017-08-16T12:06:06.298Z,983.69
2017-08-16T12:07:16.582Z,983.71
2017-08-16T12:08:26.876Z,983.75
2017-08-16T12:09:36.863Z,983.71
2017-08-16T12:10:46.519Z,983.75
2017-08-16T12:11:56.498Z,983.73
2017-08-16T12:13:06.783Z,983.81
2017-08-16T12:14:16.777Z,983.81
2017-08-16T12:15:26.752Z,983.86
2017-08-16T12:16:37.051Z,983.8
2017-08-16T12:17:47.343Z,983.79
2017-08-16T12:18:57.639Z,983.52
2017-08-16T12:20:07.687Z,983.72
2017-08-16T12:21:17.354Z,983.73
2017-08-16T12:22:27.643Z,983.78
2017-08-16T12:23:37.625Z,983.75
2017-08-16T12:24:47.612Z,983.66
2017-08-16T12:25:57.912Z,983.81
2017-08-16T12:27:07.890Z,983.79
2017-08-16T12:28:17.261Z,983.83
2017-08-16T12:29:27.239Z,983.79
2017-08-16T12:30:36.916Z,983.94
2017-08-16T12:31:47.207Z,983.86
2017-08-16T12:32:57.500Z,983.95
2017-08-16T12:34:07.791Z,983.85
2017-08-16T12:35:17.459Z,983.86
2017-08-16T12:36:27.755Z,983.48
2017-08-16T12:37:37.748Z,983.96
2017-08-16T12:38:47.722Z,983.87
2017-08-16T12:39:58.017Z,983.91
2017-08-16T12:41:08.004Z,983.93
2017-08-16T12:42:17.039Z,983.98
2017-08-16T12:43:27.019Z,983.96
2017-08-16T12:44:37.313Z,983.99
2017-08-16T12:45:47.294Z,984.02
2017-08-16T12:46:57.289Z,984.05
2017-08-16T12:48:07.585Z,984.07
2017-08-16T12:49:17.590Z,984.16
2017-08-16T12:50:27.890Z,984.16
2017-08-16T12:51:38.187Z,984.14
2017-08-16T12:52:48.478Z,984.18
2017-08-16T12:53:58.489Z,984.2
2017-08-16T12:55:08.468Z,984.23
2017-08-16T12:56:18.762Z,984.26
2017-08-16T12:57:28.432Z,984.21
2017-08-16T12:58:38.732Z,984.31
2017-08-16T12:59:49.025Z,984.32
2017-08-16T13:00:58.687Z,984.26
2017-08-16T13:02:08.348Z,984.23
2017-08-16T13:03:17.697Z,984.26
2017-08-16T13:04:27.989Z,984.31
2017-08-16T13:05:37.973Z,984.36
2017-08-16T13:06:47.953Z,983.96
2017-08-16T13:07:58.261Z,983.76
2017-08-16T13:09:08.556Z,983.79
2017-08-16T13:10:18.534Z,984.61
2017-08-16T13:11:28.508Z,984.4
2017-08-16T13:12:38.486Z,983.78
2017-08-16T13:13:48.774Z,983.8
2017-08-16T13:14:59.070Z,983.89
2017-08-16T13:16:09.397Z,983.97
2017-08-16T13:17:19.376Z,983.93
2017-08-16T13:18:29.664Z,983.92
2017-08-16T13:19:39.639Z,983.91
2017-08-16T13:20:49.926Z,983.93
2017-08-16T13:21:59.895Z,984
2017-08-16T13:23:10.190Z,983.97
2017-08-16T13:24:20.161Z,984.36
2017-08-16T13:25:30.134Z,983.93
2017-08-16T13:26:40.419Z,983.88
2017-08-16T13:27:50.390Z,983.97
2017-08-16T13:29:00.674Z,984.5
2017-08-16T13:30:10.649Z,984.47
2017-08-16T13:31:20.621Z,984.44
2017-08-16T13:32:30.275Z,984.36
2017-08-16T13:33:40.277Z,984.33
2017-08-16T13:34:50.562Z,984.36
2017-08-16T13:36:00.217Z,984.35
2017-08-16T13:37:10.506Z,984.35
2017-08-16T13:38:20.479Z,984.28
2017-08-16T13:39:30.771Z,984.39
2017-08-16T13:40:41.059Z,984.36
2017-08-16T13:41:51.031Z,984.45
2017-08-16T13:43:01.323Z,984.34
2017-08-16T13:44:11.610Z,984.49
2017-08-16T13:45:21.906Z,984.52
2017-08-16T13:46:32.196Z,984.68
2017-08-16T13:47:42.486Z,984.67
2017-08-16T13:48:52.781Z,984.66
2017-08-16T13:50:02.760Z,984.69
2017-08-16T13:51:12.736Z,984.66
2017-08-16T13:52:22.723Z,984.68
2017-08-16T13:53:32.709Z,984.65
2017-08-16T13:54:42.684Z,984.71
2017-08-16T13:55:52.975Z,984.72
2017-08-16T13:57:02.950Z,984.77
2017-08-16T13:58:12.616Z,984.74
2017-08-16T13:59:22.590Z,984.78
2017-08-16T14:00:32.564Z,984.82
2017-08-16T14:01:42.545Z,984.86
2017-08-16T14:02:52.833Z,984.92
2017-08-16T14:04:03.121Z,984.9
2017-08-16T14:05:13.416Z,984.9
2017-08-16T14:06:23.077Z,984.98
2017-08-16T14:07:33.074Z,985
2017-08-16T14:08:43.051Z,984.93
2017-08-16T14:09:53.340Z,985.04
2017-08-16T14:11:03.627Z,984.96
2017-08-16T14:12:13.605Z,984.95
2017-08-16T14:13:23.583Z,984.91
2017-08-16T14:14:33.873Z,984.87
2017-08-16T14:15:44.170Z,984.87
2017-08-16T14:16:53.835Z,984.93
2017-08-16T14:18:04.127Z,984.85
2017-08-16T14:19:14.422Z,984.87
2017-08-16T14:20:24.712Z,985.11
2017-08-16T14:21:35.001Z,985.04
2017-08-16T14:22:44.978Z,985.04
2017-08-16T14:23:55.271Z,985.04
2017-08-16T14:25:05.573Z,985.11
2017-08-16T14:26:15.866Z,985.09
2017-08-16T14:27:26.153Z,985.09
2017-08-16T14:28:35.820Z,985.13
2017-08-16T14:29:46.108Z,985.14
2017-08-16T14:30:56.403Z,985.27
2017-08-16T14:32:06.696Z,985.25
2017-08-16T14:33:16.386Z,985.16
2017-08-16T14:34:26.361Z,985.19
2017-08-16T14:35:36.340Z,985.21
2017-08-16T14:36:46.314Z,985.24
2017-08-16T14:37:56.288Z,985.21